Time,TemperatureF,DewpointF,PressureIn,WindDirection,WindDirectionDegrees,WindSpeedMPH,WindSpeedGustMPH,Humidity,HourlyPrecipIn,Conditions,Clouds,dailyrainin,SoftwareType,DateUTC
2013-07-11 00:01:00,66.9,60.5,29.93,East,90,3.0,4.6,80,0.00,CLR,,0.00,WeatherDisplay:10.37,2013-07-11 06:01:00,
2013-07-11 00:06:00,66.7,60.3,29.93,SE,135,2.2,3.5,80,0.00,CLR,,0.00,WeatherDisplay:10.37,2013-07-11 06:06:00,
2013-07-11 00:12:00,66.7,60.3,29.93,ESE,112,4.7,5.8,80,0.00,CLR,,0.00,WeatherDisplay:10.37,2013-07-11 06:12:00,
2013-07-11 00:17:00,66.7,60.3,29.93,ESE,112,2.9,4.2,80,0.00,CLR,,0.00,WeatherDisplay:10.37,2013-07-11 06:17:00,
2013-07-11 00:22:00,66.7,60.3,29.93,SE,135,4.7,5.8,80,0.00,CLR,,0.00,WeatherDisplay:10.37,2013-07-11 06:22:00,
2013-07-11 00:27:00,66.7,60.3,29.93,SSE,158,2.7,4.6,80,0.00,CLR,,0.00,WeatherDisplay:10.37,2013-07-11 06:27:00,
2013-07-11 00:32:00,66.7,60.0,29.93,ESE,112,3.5,4.7,79,0.00,CLR,,0.00,WeatherDisplay:10.37,2013-07-11 06:32:00,
2013-07-11 00:37:00,66.7,60.0,29.93,SE,135,3.4,4.6,79,0.00,CLR,,0.00,WeatherDisplay:10.37,2013-07-11 06:37:00,
2013-07-11 00:42:00,66.7,60.0,29.92,ESE,112,4.7,5.8,79,0.00,CLR,,0.00,WeatherDisplay:10.37,2013-07-11 06:42:00,
2013-07-11 00:47:00,66.7,59.6,29.92,SE,135,4.3,6.8,78,0.00,CLR,,0.00,WeatherDisplay:10.37,2013-07-11 06:47:00,
2013-07-11 00:52:00,66.9,59.8,29.91,SSE,158,3.7,4.6,78,0.00,CLR,,0.00,WeatherDisplay:10.37,2013-07-11 06:52:00,
2013-07-11 00:57:00,66.7,59.6,29.91,ENE,68,2.9,3.5,78,0.00,CLR,,0.00,WeatherDisplay:10.37,2013-07-11 06:57:00,
2013-07-11 01:02:00,66.4,59.7,29.91,ENE,68,2.9,3.5,79,0.00,CLR,,0.00,WeatherDisplay:10.37,2013-07-11 07:02:00,
2013-07-11 01:07:00,66.2,59.8,29.91,SSE,158,4.8,5.8,80,0.00,CLR,,0.00,WeatherDisplay:10.37,2013-07-11 07:07:00,
2013-07-11 01:12:00,66.2,59.8,29.91,ESE,112,3.4,4.6,80,0.00,CLR,,0.00,WeatherDisplay:10.37,2013-07-11 07:12:00,
2013-07-11 01:17:00,66.2,59.8,29.90,ESE,112,3.7,4.7,80,0.00,CLR,,0.00,WeatherDisplay:10.37,2013-07-11 07:17:00,
2013-07-11 01:22:00,66.6,59.9,29.90,ESE,112,7.5,9.2,79,0.00,CLR,,0.00,WeatherDisplay:10.37,2013-07-11 07:22:00,
2013-07-11 01:27:00,66.7,60.0,29.90,SE,135,6.8,6.9,79,0.00,CLR,,0.00,WeatherDisplay:10.37,2013-07-11 07:27:00,
2013-07-11 01:32:00,66.7,60.0,29.90,SE,135,6.8,6.9,79,0.00,CLR,,0.00,WeatherDisplay:10.37,2013-07-11 07:32:00,
2013-07-11 01:37:00,66.7,60.0,29.90,SE,135,6.8,6.9,79,0.00,CLR,,0.00,WeatherDisplay:10.37,2013-07-11 07:37:00,
2013-07-11 01:42:00,66.4,59.7,29.89,ESE,112,5.5,5.8,79,0.00,CLR,,0.00,WeatherDisplay:10.37,2013-07-11 07:42:00,
2013-07-11 01:47:00,66.2,59.5,29.89,SE,135,4.9,5.8,79,0.00,CLR,,0.00,WeatherDisplay:10.37,2013-07-11 07:47:00,
2013-07-11 01:52:00,66.0,59.7,29.89,ESE,112,4.5,6.9,80,0.00,CLR,,0.00,WeatherDisplay:10.37,2013-07-11 07:52:00,
2013-07-11 01:57:00,65.8,59.5,29.89,ESE,112,4.9,6.8,80,0.00,CLR,,0.00,WeatherDisplay:10.37,2013-07-11 07:57:00,
2013-07-11 02:02:00,65.8,59.5,29.89,ESE,112,3.1,5.8,80,0.00,CLR,,0.00,WeatherDisplay:10.37,2013-07-11 08:02:00,
2013-07-11 02:07:00,65.7,59.4,29.89,ESE,112,4.9,5.8,80,0.00,CLR,,0.00,WeatherDisplay:10.37,2013-07-11 08:07:00,
2013-07-11 02:12:00,65.5,59.5,29.89,ESE,112,3.9,4.6,81,0.00,CLR,,0.00,WeatherDisplay:10.37,2013-07-11 08:12:00,
2013-07-11 02:17:00,65.3,59.3,29.89,ENE,68,3.8,4.7,81,0.00,CLR,,0.00,WeatherDisplay:10.37,2013-07-11 08:17:00,
2013-07-11 02:22:00,65.1,59.5,29.89,ENE,68,2.9,3.5,82,0.00,CLR,,0.00,WeatherDisplay:10.37,2013-07-11 08:22:00,
2013-07-11 02:27:00,64.8,59.2,29.88,ENE,68,2.6,3.5,82,0.00,CLR,,0.00,WeatherDisplay:10.37,2013-07-11 08:27:00,
2013-07-11 02:32:00,64.6,59.3,29.88,NNE,22,2.3,2.3,83,0.00,CLR,,0.00,WeatherDisplay:10.37,2013-07-11 08:32:00,
2013-07-11 02:37:00,64.2,58.9,29.88,ENE,68,1.4,1.4,83,0.00,CLR,,0.00,WeatherDisplay:10.37,2013-07-11 08:37:00,
2013-07-11 02:42:00,64.2,59.3,29.89,ESE,112,1.7,2.3,84,0.00,CLR,,0.00,WeatherDisplay:10.37,2013-07-11 08:42:00,
2013-07-11 02:47:00,64.0,59.1,29.89,ESE,112,2.7,3.2,84,0.00,CLR,,0.00,WeatherDisplay:10.37,2013-07-11 08:47:00,
2013-07-11 02:52:00,64.0,59.1,29.88,ESE,112,4.4,5.3,84,0.00,CLR,,0.00,WeatherDisplay:10.37,2013-07-11 08:52:00,
2013-07-11 02:57:00,63.9,59.0,29.88,NE,45,3.5,3.7,84,0.00,CLR,,0.00,WeatherDisplay:10.37,2013-07-11 08:57:00,
2013-07-11 03:02:00,63.9,59.0,29.88,NE,45,3.7,3.7,84,0.00,CLR,,0.00,WeatherDisplay:10.37,2013-07-11 09:02:00,
2013-07-11 03:07:00,63.5,58.9,29.88,ESE,112,2.7,5.8,85,0.00,CLR,,0.00,WeatherDisplay:10.37,2013-07-11 09:07:00,
2013-07-11 03:12:00,63.3,58.7,29.88,ESE,112,3.4,4.6,85,0.00,CLR,,0.00,WeatherDisplay:10.37,2013-07-11 09:12:00,
2013-07-11 03:17:00,63.0,58.7,29.88,ESE,112,4.4,5.8,86,0.00,CLR,,0.00,WeatherDisplay:10.37,2013-07-11 09:17:00,
2013-07-11 03:22:00,62.8,58.5,29.88,SE,135,4.3,4.6,86,0.00,CLR,,0.00,WeatherDisplay:10.37,2013-07-11 09:22:00,
2013-07-11 03:27:00,62.4,58.5,29.87,SSE,158,2.8,3.5,87,0.00,CLR,,0.00,WeatherDisplay:10.37,2013-07-11 09:27:00,
2013-07-11 03:32:00,62.2,58.3,29.87,SSE,158,3.8,4.2,87,0.00,CLR,,0.00,WeatherDisplay:10.37,2013-07-11 09:32:00,
2013-07-11 03:37:00,62.1,58.5,29.87,ESE,112,2.5,4.6,88,0.00,CLR,,0.00,WeatherDisplay:10.37,2013-07-11 09:37:00,
2013-07-11 03:42:00,61.9,58.3,29.86,ENE,68,2.7,2.7,88,0.00,CLR,,0.00,WeatherDisplay:10.37,2013-07-11 09:42:00,
2013-07-11 03:47:00,61.5,57.9,29.86,NNE,22,2.8,4.6,88,0.00,CLR,,0.00,WeatherDisplay:10.37,2013-07-11 09:47:00,
2013-07-11 03:52:00,61.5,58.2,29.87,ESE,112,5.1,5.8,89,0.00,CLR,,0.00,WeatherDisplay:10.37,2013-07-11 09:52:00,
2013-07-11 03:57:00,61.5,58.2,29.87,ESE,112,5.3,5.8,89,0.00,CLR,,0.00,WeatherDisplay:10.37,2013-07-11 09:57:00,
2013-07-11 04:02:00,61.5,58.2,29.86,ENE,68,3.8,4.6,89,0.00,CLR,,0.00,WeatherDisplay:10.37,2013-07-11 10:02:00,
2013-07-11 04:07:00,61.7,58.4,29.86,SE,135,5.1,6.3,89,0.00,CLR,,0.00,WeatherDisplay:10.37,2013-07-11 10:07:00,
2013-07-11 04:12:00,61.9,58.6,29.86,SE,135,6.5,8.1,89,0.00,CLR,,0.00,WeatherDisplay:10.37,2013-07-11 10:12:00,
2013-07-11 04:17:00,61.9,58.6,29.85,SE,135,2.9,4.6,89,0.00,CLR,,0.00,WeatherDisplay:10.37,2013-07-11 10:17:00,
2013-07-11 04:22:00,62.1,58.8,29.85,ESE,112,3.9,5.3,89,0.00,CLR,,0.00,WeatherDisplay:10.37,2013-07-11 10:22:00,
2013-07-11 04:27:00,62.2,58.9,29.86,ESE,112,4.4,5.8,89,0.00,CLR,,0.00,WeatherDisplay:10.37,2013-07-11 10:27:00,
2013-07-11 04:32:00,62.2,58.9,29.86,ENE,68,2.4,3.5,89,0.00,CLR,,0.00,WeatherDisplay:10.37,2013-07-11 10:32:00,
2013-07-11 04:37:00,61.7,58.4,29.86,East,90,2.3,2.3,89,0.00,CLR,,0.00,WeatherDisplay:10.37,2013-07-11 10:37:00,
2013-07-11 04:42:00,61.3,58.0,29.85,ESE,112,3.3,3.5,89,0.00,CLR,,0.00,WeatherDisplay:10.37,2013-07-11 10:42:00,
2013-07-11 04:47:00,61.0,58.0,29.85,SE,135,2.7,3.5,90,0.00,CLR,,0.00,WeatherDisplay:10.37,2013-07-11 10:47:00,
2013-07-11 04:52:00,60.8,57.8,29.85,ESE,112,3.0,4.6,90,0.00,CLR,,0.00,WeatherDisplay:10.37,2013-07-11 10:52:00,
2013-07-11 04:57:00,60.6,58.0,29.85,East,90,2.7,4.6,91,0.00,CLR,,0.00,WeatherDisplay:10.37,2013-07-11 10:57:00,
2013-07-11 05:02:00,60.4,57.8,29.85,SE,135,2.2,2.7,91,0.00,CLR,,0.00,WeatherDisplay:10.37,2013-07-11 11:02:00,
2013-07-11 05:07:00,60.4,58.1,29.85,SSE,158,3.7,4.6,92,0.00,CLR,,0.00,WeatherDisplay:10.37,2013-07-11 11:07:00,
2013-07-11 05:12:00,60.3,58.0,29.85,SE,135,2.9,5.8,92,0.00,CLR,,0.00,WeatherDisplay:10.37,2013-07-11 11:12:00,
2013-07-11 05:17:00,60.3,58.0,29.85,East,90,4.0,4.6,92,0.00,CLR,,0.00,WeatherDisplay:10.37,2013-07-11 11:17:00,
2013-07-11 05:22:00,60.3,58.0,29.85,ESE,112,3.6,4.2,92,0.00,CLR,,0.00,WeatherDisplay:10.37,2013-07-11 11:22:00,
2013-07-11 05:27:00,60.3,58.0,29.85,East,90,2.9,4.6,92,0.00,CLR,,0.00,WeatherDisplay:10.37,2013-07-11 11:27:00,
2013-07-11 05:32:00,60.3,58.0,29.85,SE,135,3.8,3.8,92,0.00,CLR,,0.00,WeatherDisplay:10.37,2013-07-11 11:32:00,
2013-07-11 05:37:00,60.3,58.0,29.86,SSE,158,2.6,3.5,92,0.00,CLR,,0.00,WeatherDisplay:10.37,2013-07-11 11:37:00,
2013-07-11 05:42:00,60.3,58.0,29.86,SSE,158,3.4,4.6,92,0.00,CLR,,0.00,WeatherDisplay:10.37,2013-07-11 11:42:00,
2013-07-11 05:47:00,60.8,58.5,29.86,ESE,112,3.3,4.6,92,0.00,CLR,,0.00,WeatherDisplay:10.37,2013-07-11 11:47:00,
2013-07-11 05:52:00,61.2,58.2,29.85,ESE,112,3.8,4.6,90,0.00,CLR,,0.00,WeatherDisplay:10.37,2013-07-11 11:52:00,
2013-07-11 05:58:00,61.5,58.2,29.85,ESE,112,3.1,3.5,89,0.00,CLR,,0.00,WeatherDisplay:10.37,2013-07-11 11:58:00,
2013-07-11 06:03:00,61.5,58.2,29.85,ESE,112,2.4,4.6,89,0.00,CLR,,0.00,WeatherDisplay:10.37,2013-07-11 12:03:00,
2013-07-11 06:08:00,61.5,58.2,29.85,ESE,112,2.8,4.6,89,0.00,CLR,,0.00,WeatherDisplay:10.37,2013-07-11 12:08:00,
2013-07-11 06:13:00,61.3,58.0,29.85,ESE,112,4.2,4.7,89,0.00,CLR,,0.00,WeatherDisplay:10.37,2013-07-11 12:13:00,
2013-07-11 06:18:00,61.3,58.3,29.85,East,90,3.3,4.6,90,0.00,CLR,,0.00,WeatherDisplay:10.37,2013-07-11 12:18:00,
2013-07-11 06:23:00,61.5,58.5,29.85,ESE,112,3.8,4.6,90,0.00,CLR,,0.00,WeatherDisplay:10.37,2013-07-11 12:23:00,
2013-07-11 06:28:00,62.2,59.2,29.84,SE,135,3.3,4.7,90,0.00,CLR,,0.00,WeatherDisplay:10.37,2013-07-11 12:28:00,
2013-07-11 06:33:00,63.1,59.8,29.84,SE,135,3.1,4.7,89,0.00,CLR,,0.00,WeatherDisplay:10.37,2013-07-11 12:33:00,
2013-07-11 06:38:00,63.9,60.0,29.84,ESE,112,5.0,6.9,87,0.00,CLR,,0.00,WeatherDisplay:10.37,2013-07-11 12:38:00,
2013-07-11 06:43:00,64.8,60.5,29.84,SE,135,6.0,6.9,86,0.00,CLR,,0.00,WeatherDisplay:10.37,2013-07-11 12:43:00,
2013-07-11 06:48:00,64.9,60.3,29.84,NE,45,4.1,5.3,85,0.00,CLR,,0.00,WeatherDisplay:10.37,2013-07-11 12:48:00,
2013-07-11 06:53:00,65.7,61.1,29.84,ESE,112,4.4,5.8,85,0.00,CLR,,0.00,WeatherDisplay:10.37,2013-07-11 12:53:00,
2013-07-11 06:58:00,66.4,61.4,29.84,ESE,112,5.9,6.9,84,0.00,CLR,,0.00,WeatherDisplay:10.37,2013-07-11 12:58:00,
2013-07-11 07:03:00,66.9,61.6,29.84,ESE,112,3.6,5.8,83,0.00,CLR,,0.00,WeatherDisplay:10.37,2013-07-11 13:03:00,
2013-07-11 07:08:00,67.5,61.8,29.84,ESE,112,5.7,6.9,82,0.00,CLR,,0.00,WeatherDisplay:10.37,2013-07-11 13:08:00,
2013-07-11 07:13:00,68.5,62.4,29.84,SE,135,1.8,4.6,81,0.00,CLR,,0.00,WeatherDisplay:10.37,2013-07-11 13:13:00,
2013-07-11 07:19:00,69.6,63.2,29.84,SSE,158,4.2,6.9,80,0.00,CLR,,0.00,WeatherDisplay:10.37,2013-07-11 13:19:00,
2013-07-11 07:25:00,69.1,62.7,29.84,South,180,8.6,10.4,80,0.00,CLR,,0.00,WeatherDisplay:10.37,2013-07-11 13:25:00,
2013-07-11 07:30:00,68.9,62.5,29.84,ESE,112,8.0,9.2,80,0.00,CLR,,0.00,WeatherDisplay:10.37,2013-07-11 13:30:00,
2013-07-11 07:36:00,69.4,63.0,29.84,South,180,7.3,8.3,80,0.00,CLR,,0.00,WeatherDisplay:10.37,2013-07-11 13:36:00,
2013-07-11 07:42:00,70.9,63.7,29.83,ESE,112,9.7,10.9,78,0.00,CLR,,0.00,WeatherDisplay:10.37,2013-07-11 13:42:00,
2013-07-11 07:47:00,70.7,63.5,29.83,SE,135,7.2,8.1,78,0.00,CLR,,0.00,WeatherDisplay:10.37,2013-07-11 13:47:00,
2013-07-11 07:52:00,70.7,63.5,29.83,ESE,112,8.9,9.9,78,0.00,CLR,,0.00,WeatherDisplay:10.37,2013-07-11 13:52:00,
2013-07-11 07:57:00,71.2,64.0,29.83,South,180,6.1,7.3,78,0.00,CLR,,0.00,WeatherDisplay:10.37,2013-07-11 13:57:00,
2013-07-11 08:03:00,71.6,64.4,29.82,ESE,112,8.3,9.2,78,0.00,CLR,,0.00,WeatherDisplay:10.37,2013-07-11 14:03:00,
2013-07-11 08:08:00,72.1,64.5,29.82,SE,135,6.6,9.2,77,0.00,CLR,,0.00,WeatherDisplay:10.37,2013-07-11 14:08:00,
2013-07-11 08:13:00,73.0,65.0,29.83,ESE,112,5.8,5.8,76,0.00,CLR,,0.00,WeatherDisplay:10.37,2013-07-11 14:13:00,
2013-07-11 08:19:00,73.0,65.0,29.83,ESE,112,5.8,5.8,76,0.00,CLR,,0.00,WeatherDisplay:10.37,2013-07-11 14:19:00,
2013-07-11 08:24:00,72.3,64.3,29.83,SSE,158,7.1,8.1,76,0.00,CLR,,0.00,WeatherDisplay:10.37,2013-07-11 14:24:00,
2013-07-11 08:29:00,72.3,64.3,29.82,SSE,158,5.8,5.8,76,0.00,CLR,,0.00,WeatherDisplay:10.37,2013-07-11 14:29:00,
2013-07-11 08:35:00,72.7,65.1,29.82,ESE,112,6.1,8.1,77,0.00,CLR,,0.00,WeatherDisplay:10.37,2013-07-11 14:35:00,
2013-07-11 08:40:00,72.9,65.3,29.82,ESE,112,4.1,8.1,77,0.00,CLR,,0.00,WeatherDisplay:10.37,2013-07-11 14:40:00,
2013-07-11 08:45:00,73.0,65.4,29.82,ESE,112,4.4,8.1,77,0.00,CLR,,0.00,WeatherDisplay:10.37,2013-07-11 14:45:00,
2013-07-11 08:50:00,72.9,65.3,29.82,SE,135,7.0,9.2,77,0.00,CLR,,0.00,WeatherDisplay:10.37,2013-07-11 14:50:00,
2013-07-11 08:56:00,73.0,65.4,29.82,SSE,158,6.9,7.8,77,0.00,CLR,,0.00,WeatherDisplay:10.37,2013-07-11 14:56:00,
2013-07-11 09:01:00,73.9,65.9,29.82,ESE,112,8.5,11.9,76,0.00,CLR,,0.00,WeatherDisplay:10.37,2013-07-11 15:01:00,
2013-07-11 09:06:00,73.6,65.6,29.82,SSE,158,6.2,8.1,76,0.00,CLR,,0.00,WeatherDisplay:10.37,2013-07-11 15:06:00,
2013-07-11 09:11:00,74.1,66.0,29.82,ESE,112,7.4,9.2,76,0.00,CLR,,0.00,WeatherDisplay:10.37,2013-07-11 15:11:00,
2013-07-11 09:16:00,74.3,66.2,29.81,NNE,22,4.3,6.9,76,0.00,CLR,,0.00,WeatherDisplay:10.37,2013-07-11 15:16:00,
2013-07-11 09:21:00,74.8,66.3,29.81,SE,135,5.7,8.1,75,0.00,CLR,,0.00,WeatherDisplay:10.37,2013-07-11 15:21:00,
2013-07-11 09:27:00,74.8,66.3,29.81,ESE,112,8.2,9.2,75,0.00,CLR,,0.00,WeatherDisplay:10.37,2013-07-11 15:27:00,
2013-07-11 09:32:00,75.2,66.7,29.81,SE,135,4.4,5.8,75,0.00,CLR,,0.00,WeatherDisplay:10.37,2013-07-11 15:32:00,
2013-07-11 09:37:00,75.9,67.0,29.81,SE,135,7.8,9.4,74,0.00,CLR,,0.00,WeatherDisplay:10.37,2013-07-11 15:37:00,
2013-07-11 09:43:00,75.9,67.0,29.80,ESE,112,8.0,9.4,74,0.00,CLR,,0.00,WeatherDisplay:10.37,2013-07-11 15:43:00,
2013-07-11 09:48:00,76.3,67.0,29.80,SE,135,8.5,10.9,73,0.00,CLR,,0.00,WeatherDisplay:10.37,2013-07-11 15:48:00,
2013-07-11 09:53:00,76.6,67.3,29.80,ESE,112,5.4,8.1,73,0.00,CLR,,0.00,WeatherDisplay:10.37,2013-07-11 15:53:00,
2013-07-11 09:58:00,77.5,67.8,29.80,SE,135,5.2,5.8,72,0.00,CLR,,0.00,WeatherDisplay:10.37,2013-07-11 15:58:00,
2013-07-11 10:03:00,77.5,67.4,29.81,SSW,202,4.5,5.8,71,0.00,CLR,,0.00,WeatherDisplay:10.37,2013-07-11 16:03:00,
2013-07-11 10:08:00,78.3,68.1,29.81,ESE,112,5.5,6.3,71,0.00,CLR,,0.00,WeatherDisplay:10.37,2013-07-11 16:08:00,
2013-07-11 10:14:00,78.6,68.0,29.81,ESE,112,5.7,6.9,70,0.00,CLR,,0.00,WeatherDisplay:10.37,2013-07-11 16:14:00,
2013-07-11 10:19:00,78.1,68.3,29.81,South,180,6.3,6.9,72,0.00,CLR,,0.00,WeatherDisplay:10.37,2013-07-11 16:19:00,
2013-07-11 10:24:00,79.3,69.1,29.81,SE,135,5.1,6.9,71,0.00,CLR,,0.00,WeatherDisplay:10.37,2013-07-11 16:24:00,
2013-07-11 10:29:00,79.7,69.0,29.80,SE,135,9.5,10.4,70,0.00,CLR,,0.00,WeatherDisplay:10.37,2013-07-11 16:29:00,
2013-07-11 10:34:00,79.7,69.0,29.80,ESE,112,6.3,10.4,70,0.00,CLR,,0.00,WeatherDisplay:10.37,2013-07-11 16:34:00,
2013-07-11 10:40:00,80.6,69.9,29.79,ESE,112,11.2,11.9,70,0.00,CLR,,0.00,WeatherDisplay:10.37,2013-07-11 16:40:00,
2013-07-11 10:46:00,80.8,69.7,29.79,East,90,9.2,11.5,69,0.00,CLR,,0.00,WeatherDisplay:10.37,2013-07-11 16:46:00,
2013-07-11 10:51:00,81.1,69.5,29.79,SSE,158,10.1,10.9,68,0.00,CLR,,0.00,WeatherDisplay:10.37,2013-07-11 16:51:00,
2013-07-11 10:57:00,81.0,69.9,29.79,ESE,112,10.0,10.9,69,0.00,CLR,,0.00,WeatherDisplay:10.37,2013-07-11 16:57:00,
2013-07-11 11:02:00,82.2,71.0,29.78,SSE,158,6.5,8.3,69,0.00,CLR,,0.00,WeatherDisplay:10.37,2013-07-11 17:02:00,
2013-07-11 11:07:00,81.5,69.9,29.78,ESE,112,8.6,10.4,68,0.00,CLR,,0.00,WeatherDisplay:10.37,2013-07-11 17:07:00,
2013-07-11 11:12:00,82.2,70.6,29.78,ESE,112,6.6,9.2,68,0.00,CLR,,0.00,WeatherDisplay:10.37,2013-07-11 17:12:00,
2013-07-11 11:17:00,82.9,71.3,29.79,ESE,112,6.5,8.1,68,0.00,CLR,,0.00,WeatherDisplay:10.37,2013-07-11 17:17:00,
2013-07-11 11:24:00,82.6,70.5,29.79,ESE,112,8.3,9.4,67,0.00,CLR,,0.00,WeatherDisplay:10.37,2013-07-11 17:24:00,
2013-07-11 11:29:00,82.9,70.8,29.79,SSE,158,9.9,15.0,67,0.00,CLR,,0.00,WeatherDisplay:10.37,2013-07-11 17:29:00,
2013-07-11 11:34:00,83.3,71.2,29.79,ESE,112,6.9,9.2,67,0.00,CLR,,0.00,WeatherDisplay:10.37,2013-07-11 17:34:00,
2013-07-11 11:39:00,83.3,71.6,29.78,SE,135,6.9,11.5,68,0.00,CLR,,0.00,WeatherDisplay:10.37,2013-07-11 17:39:00,
2013-07-11 11:45:00,84.4,71.8,29.78,ESE,112,8.0,9.2,66,0.00,CLR,,0.00,WeatherDisplay:10.37,2013-07-11 17:45:00,
2013-07-11 11:51:00,84.4,71.8,29.78,ESE,112,8.8,9.2,66,0.00,CLR,,0.00,WeatherDisplay:10.37,2013-07-11 17:51:00,
2013-07-11 11:56:00,84.7,72.1,29.78,ESE,112,6.8,6.9,66,0.00,CLR,,0.00,WeatherDisplay:10.37,2013-07-11 17:56:00,
2013-07-11 12:01:00,85.8,71.7,29.78,ESE,112,8.2,10.4,63,0.00,CLR,,0.00,WeatherDisplay:10.37,2013-07-11 18:01:00,
2013-07-11 12:06:00,85.6,72.5,29.77,ESE,112,7.8,13.8,65,0.00,CLR,,0.00,WeatherDisplay:10.37,2013-07-11 18:06:00,
2013-07-11 12:11:00,85.5,72.4,29.77,SSE,158,7.8,11.5,65,0.00,CLR,,0.00,WeatherDisplay:10.37,2013-07-11 18:11:00,
2013-07-11 12:18:00,85.3,72.6,29.77,ESE,112,7.4,10.9,66,0.00,CLR,,0.00,WeatherDisplay:10.37,2013-07-11 18:18:00,
2013-07-11 12:23:00,86.2,72.6,29.77,ESE,112,9.7,10.9,64,0.00,CLR,,0.00,WeatherDisplay:10.37,2013-07-11 18:23:00,
2013-07-11 12:28:00,87.3,73.2,29.76,SE,135,6.4,10.4,63,0.00,CLR,,0.00,WeatherDisplay:10.37,2013-07-11 18:28:00,
2013-07-11 12:34:00,87.1,73.0,29.76,ESE,112,8.8,10.9,63,0.00,CLR,,0.00,WeatherDisplay:10.37,2013-07-11 18:34:00,
2013-07-11 12:39:00,87.4,72.8,29.76,SE,135,7.1,13.8,62,0.00,CLR,,0.00,WeatherDisplay:10.37,2013-07-11 18:39:00,
2013-07-11 12:44:00,88.0,72.9,29.76,East,90,10.0,11.5,61,0.00,CLR,,0.00,WeatherDisplay:10.37,2013-07-11 18:44:00,
2013-07-11 12:50:00,88.3,72.2,29.75,SSE,158,10.2,12.7,59,0.00,CLR,,0.00,WeatherDisplay:10.37,2013-07-11 18:50:00,
2013-07-11 12:55:00,88.3,72.7,29.75,ESE,112,8.6,12.7,60,0.00,CLR,,0.00,WeatherDisplay:10.37,2013-07-11 18:55:00,
2013-07-11 13:01:00,88.3,72.7,29.75,ESE,112,7.3,7.3,60,0.00,CLR,,0.00,WeatherDisplay:10.37,2013-07-11 19:01:00,
2013-07-11 13:06:00,89.1,72.9,29.75,SE,135,9.3,11.9,59,0.00,CLR,,0.00,WeatherDisplay:10.37,2013-07-11 19:06:00,
2013-07-11 13:11:00,89.1,73.4,29.75,ESE,112,9.6,14.0,60,0.00,CLR,,0.00,WeatherDisplay:10.37,2013-07-11 19:11:00,
2013-07-11 13:16:00,89.1,72.9,29.73,ESE,112,12.9,15.5,59,0.00,CLR,,0.00,WeatherDisplay:10.37,2013-07-11 19:16:00,
2013-07-11 13:21:00,89.1,72.4,29.73,SE,135,12.3,16.1,58,0.00,CLR,,0.00,WeatherDisplay:10.37,2013-07-11 19:21:00,
2013-07-11 13:27:00,89.1,71.9,29.73,SE,135,13.8,16.6,57,0.00,CLR,,0.00,WeatherDisplay:10.37,2013-07-11 19:27:00,
2013-07-11 13:32:00,89.4,71.6,29.73,SE,135,16.1,18.4,56,0.00,CLR,,0.00,WeatherDisplay:10.37,2013-07-11 19:32:00,
2013-07-11 13:37:00,89.2,73.0,29.72,ESE,112,13.5,16.1,59,0.00,CLR,,0.00,WeatherDisplay:10.37,2013-07-11 19:37:00,
2013-07-11 13:43:00,90.0,73.2,29.72,ESE,112,16.2,19.1,58,0.00,CLR,,0.00,WeatherDisplay:10.37,2013-07-11 19:43:00,
2013-07-11 13:48:00,89.6,72.3,29.72,SSE,158,16.0,18.4,57,0.00,CLR,,0.00,WeatherDisplay:10.37,2013-07-11 19:48:00,
2013-07-11 13:53:00,90.0,72.7,29.72,ESE,112,10.2,12.7,57,0.00,CLR,,0.00,WeatherDisplay:10.37,2013-07-11 19:53:00,
2013-07-11 13:58:00,90.9,72.0,29.72,ESE,112,12.6,18.1,54,0.00,CLR,,0.00,WeatherDisplay:10.37,2013-07-11 19:58:00,
2013-07-11 14:03:00,90.1,70.7,29.72,SE,135,15.3,18.4,53,0.00,CLR,,0.00,WeatherDisplay:10.37,2013-07-11 20:03:00,
2013-07-11 14:08:00,90.5,71.6,29.72,SE,135,14.1,16.6,54,0.00,CLR,,0.00,WeatherDisplay:10.37,2013-07-11 20:08:00,
2013-07-11 14:13:00,90.9,70.8,29.72,SSE,158,14.5,15.5,52,0.00,CLR,,0.00,WeatherDisplay:10.37,2013-07-11 20:13:00,
2013-07-11 14:19:00,90.5,72.1,29.71,ESE,112,13.3,16.1,55,0.00,CLR,,0.00,WeatherDisplay:10.37,2013-07-11 20:19:00,
2013-07-11 14:25:00,91.0,71.5,29.71,ESE,112,10.0,15.0,53,0.00,CLR,,0.00,WeatherDisplay:10.37,2013-07-11 20:25:00,
2013-07-11 14:30:00,91.2,72.2,29.71,SSE,158,11.2,17.3,54,0.00,CLR,,0.00,WeatherDisplay:10.37,2013-07-11 20:30:00,
2013-07-11 14:35:00,90.9,72.0,29.71,ESE,112,13.2,15.0,54,0.00,CLR,,0.00,WeatherDisplay:10.37,2013-07-11 20:35:00,
2013-07-11 14:40:00,90.9,72.0,29.71,ESE,112,15.8,18.4,54,0.00,CLR,,0.00,WeatherDisplay:10.37,2013-07-11 20:40:00,
2013-07-11 14:47:00,90.3,71.9,29.71,ESE,112,14.0,19.6,55,0.00,CLR,,0.00,WeatherDisplay:10.37,2013-07-11 20:47:00,
2013-07-11 14:52:00,90.7,71.8,29.70,ESE,112,11.9,19.6,54,0.00,CLR,,0.00,WeatherDisplay:10.37,2013-07-11 20:52:00,
2013-07-11 14:57:00,90.7,72.3,29.70,ESE,112,10.4,15.0,55,0.00,CLR,,0.00,WeatherDisplay:10.37,2013-07-11 20:57:00,
2013-07-11 15:02:00,90.9,72.0,29.71,ESE,112,14.8,17.3,54,0.00,CLR,,0.00,WeatherDisplay:10.37,2013-07-11 21:02:00,
2013-07-11 15:08:00,90.9,72.5,29.71,ESE,112,12.2,16.1,55,0.00,CLR,,0.00,WeatherDisplay:10.37,2013-07-11 21:08:00,
2013-07-11 15:14:00,91.2,70.5,29.70,ESE,112,13.1,17.6,51,0.00,CLR,,0.00,WeatherDisplay:10.37,2013-07-11 21:14:00,
2013-07-11 15:19:00,91.0,70.4,29.70,ESE,112,14.8,17.1,51,0.00,CLR,,0.00,WeatherDisplay:10.37,2013-07-11 21:19:00,
2013-07-11 15:24:00,91.0,70.4,29.70,SSE,158,14.5,17.1,51,0.00,CLR,,0.00,WeatherDisplay:10.37,2013-07-11 21:24:00,
2013-07-11 15:30:00,91.0,71.5,29.70,ESE,112,12.3,15.0,53,0.00,CLR,,0.00,WeatherDisplay:10.37,2013-07-11 21:30:00,
2013-07-11 15:35:00,91.0,72.0,29.70,SE,135,16.0,16.6,54,0.00,CLR,,0.00,WeatherDisplay:10.37,2013-07-11 21:35:00,
2013-07-11 15:41:00,90.9,72.0,29.68,SSE,158,11.0,15.0,54,0.00,CLR,,0.00,WeatherDisplay:10.37,2013-07-11 21:41:00,
2013-07-11 15:46:00,91.0,72.6,29.68,SSW,202,13.0,16.1,55,0.00,CLR,,0.00,WeatherDisplay:10.37,2013-07-11 21:46:00,
2013-07-11 15:51:00,90.9,70.3,29.68,ESE,112,16.0,16.1,51,0.00,CLR,,0.00,WeatherDisplay:10.37,2013-07-11 21:51:00,
2013-07-11 15:56:00,91.0,71.5,29.68,SSE,158,8.0,15.0,53,0.00,CLR,,0.00,WeatherDisplay:10.37,2013-07-11 21:56:00,
2013-07-11 16:02:00,91.4,71.9,29.68,ESE,112,11.3,15.0,53,0.00,CLR,,0.00,WeatherDisplay:10.37,2013-07-11 22:02:00,
2013-07-11 16:07:00,91.2,71.1,29.68,ESE,112,13.7,16.0,52,0.00,CLR,,0.00,WeatherDisplay:10.37,2013-07-11 22:07:00,
2013-07-11 16:12:00,91.2,71.1,29.68,SSE,158,8.3,8.3,52,0.00,CLR,,0.00,WeatherDisplay:10.37,2013-07-11 22:12:00,
2013-07-11 16:17:00,91.2,71.1,29.67,SE,135,13.0,15.0,52,0.00,CLR,,0.00,WeatherDisplay:10.37,2013-07-11 22:17:00,
2013-07-11 16:23:00,91.0,71.5,29.67,SE,135,15.4,16.1,53,0.00,CLR,,0.00,WeatherDisplay:10.37,2013-07-11 22:23:00,
2013-07-11 16:28:00,90.7,71.2,29.67,ESE,112,15.1,17.3,53,0.00,CLR,,0.00,WeatherDisplay:10.37,2013-07-11 22:28:00,
2013-07-11 16:33:00,90.1,71.2,29.67,SE,135,12.1,15.0,54,0.00,CLR,,0.00,WeatherDisplay:10.37,2013-07-11 22:33:00,
2013-07-11 16:38:00,89.6,71.3,29.66,SSE,158,12.3,14.0,55,0.00,CLR,,0.00,WeatherDisplay:10.37,2013-07-11 22:38:00,
2013-07-11 16:43:00,89.4,71.1,29.66,SE,135,13.9,16.6,55,0.00,CLR,,0.00,WeatherDisplay:10.37,2013-07-11 22:43:00,
2013-07-11 16:49:00,89.1,70.8,29.66,East,90,12.4,15.0,55,0.00,CLR,,0.00,WeatherDisplay:10.37,2013-07-11 22:49:00,
2013-07-11 16:54:00,88.5,70.3,29.66,SE,135,12.6,16.1,55,0.00,CLR,,0.00,WeatherDisplay:10.37,2013-07-11 22:54:00,
2013-07-11 17:00:00,88.0,70.9,29.66,ESE,112,9.0,11.5,57,0.00,CLR,,0.00,WeatherDisplay:10.37,2013-07-11 23:00:00,
2013-07-11 17:05:00,87.8,71.7,29.66,ESE,112,8.4,10.4,59,0.00,CLR,,0.00,WeatherDisplay:10.37,2013-07-11 23:05:00,
2013-07-11 17:10:00,86.9,72.3,29.66,ESE,112,7.6,8.1,62,0.00,CLR,,0.00,WeatherDisplay:10.37,2013-07-11 23:10:00,
2013-07-11 17:16:00,86.4,73.2,29.66,ESE,112,8.1,9.2,65,0.00,CLR,,0.00,WeatherDisplay:10.37,2013-07-11 23:16:00,
2013-07-11 17:21:00,86.0,73.3,29.66,ESE,112,6.9,9.2,66,0.00,CLR,,0.00,WeatherDisplay:10.37,2013-07-11 23:21:00,
2013-07-11 17:26:00,85.8,72.7,29.65,SSE,158,5.6,5.8,65,0.00,CLR,,0.00,WeatherDisplay:10.37,2013-07-11 23:26:00,
2013-07-11 17:31:00,85.5,72.8,29.65,ESE,112,7.3,9.2,66,0.00,CLR,,0.00,WeatherDisplay:10.37,2013-07-11 23:31:00,
2013-07-11 17:36:00,85.3,72.6,29.65,SSE,158,7.0,10.4,66,0.00,CLR,,0.00,WeatherDisplay:10.37,2013-07-11 23:36:00,
2013-07-11 17:41:00,84.9,72.3,29.65,SE,135,5.8,8.3,66,0.00,CLR,,0.00,WeatherDisplay:10.37,2013-07-11 23:41:00,
2013-07-11 17:47:00,84.4,72.2,29.65,SE,135,4.1,5.8,67,0.00,CLR,,0.00,WeatherDisplay:10.37,2013-07-11 23:47:00,
2013-07-11 17:52:00,84.4,72.2,29.65,SE,135,2.7,5.8,67,0.00,CLR,,0.00,WeatherDisplay:10.37,2013-07-11 23:52:00,
2013-07-11 17:57:00,84.2,72.5,29.65,NNE,22,0.8,4.6,68,0.00,CLR,,0.00,WeatherDisplay:10.37,2013-07-11 23:57:00,
2013-07-11 18:02:00,84.2,72.5,29.66,NE,45,3.8,4.6,68,0.00,FEW,,0.00,WeatherDisplay:10.37,2013-07-12 00:02:00,
2013-07-11 18:08:00,84.0,71.9,29.66,SSE,158,3.0,4.6,67,0.00,FEW,,0.00,WeatherDisplay:10.37,2013-07-12 00:08:00,
2013-07-11 18:13:00,84.0,71.4,29.66,ESE,112,5.8,6.9,66,0.00,FEW,,0.00,WeatherDisplay:10.37,2013-07-12 00:13:00,
2013-07-11 18:18:00,84.2,71.6,29.66,SSW,202,3.8,6.9,66,0.00,FEW,,0.00,WeatherDisplay:10.37,2013-07-12 00:18:00,
2013-07-11 18:24:00,84.4,62.0,29.66,SW,225,19.5,24.3,47,0.00,FEW,,0.00,WeatherDisplay:10.37,2013-07-12 00:24:00,
2013-07-11 18:29:00,82.6,60.3,29.74,West,270,22.6,36.8,47,0.00,FEW,,0.00,WeatherDisplay:10.37,2013-07-12 00:29:00,
2013-07-11 18:34:00,78.4,60.9,29.74,West,270,9.5,15.0,55,0.00,FEW,,0.00,WeatherDisplay:10.37,2013-07-12 00:34:00,
2013-07-11 18:39:00,78.4,60.9,29.74,West,270,12.4,12.7,55,0.00,FEW,,0.00,WeatherDisplay:10.37,2013-07-12 00:39:00,
2013-07-11 18:44:00,72.3,62.4,29.74,West,270,9.9,10.4,71,0.00,-RA,,0.00,WeatherDisplay:10.37,2013-07-12 00:44:00,
2013-07-11 18:49:00,71.1,62.4,29.72,WNW,292,6.8,10.4,74,0.01,-RA,,0.01,WeatherDisplay:10.37,2013-07-12 00:49:00,
2013-07-11 18:55:00,71.8,62.3,29.72,ESE,112,6.4,9.2,72,0.01,-RA,,0.01,WeatherDisplay:10.37,2013-07-12 00:55:00,
2013-07-11 19:00:00,71.4,63.1,29.72,SSE,158,2.1,3.7,75,0.01,-RA,,0.01,WeatherDisplay:10.37,2013-07-12 01:00:00,
2013-07-11 19:05:00,71.8,63.1,29.71,SW,225,0.3,1.7,74,0.01,-RA,,0.01,WeatherDisplay:10.37,2013-07-12 01:05:00,
2013-07-11 19:11:00,71.8,63.1,29.71,ENE,68,2.1,2.7,74,0.02,-RA,,0.02,WeatherDisplay:10.37,2013-07-12 01:11:00,
2013-07-11 19:16:00,72.9,62.1,29.71,NNE,22,5.9,8.1,69,0.02,-RA,,0.02,WeatherDisplay:10.37,2013-07-12 01:16:00,
2013-07-11 19:21:00,73.8,62.2,29.71,ESE,112,3.2,8.1,67,0.02,-RA,,0.02,WeatherDisplay:10.37,2013-07-12 01:21:00,
2013-07-11 19:26:00,73.8,62.2,29.67,ENE,68,4.0,5.8,67,0.02,-RA,,0.02,WeatherDisplay:10.37,2013-07-12 01:26:00,
2013-07-11 19:31:00,73.8,62.2,29.67,West,270,2.5,2.7,67,0.02,-RA,,0.02,WeatherDisplay:10.37,2013-07-12 01:31:00,
2013-07-11 19:37:00,73.8,62.2,29.67,East,90,2.0,2.3,67,0.02,-RA,,0.02,WeatherDisplay:10.37,2013-07-12 01:37:00,
2013-07-11 19:42:00,73.9,61.8,29.67,ESE,112,4.8,7.3,66,0.02,-RA,,0.02,WeatherDisplay:10.37,2013-07-12 01:42:00,
2013-07-11 19:48:00,74.3,61.8,29.67,NNE,22,4.4,5.8,65,0.02,-RA,,0.02,WeatherDisplay:10.37,2013-07-12 01:48:00,
2013-07-11 19:54:00,74.8,60.9,29.66,ESE,112,3.3,4.6,62,0.01,-RA,,0.02,WeatherDisplay:10.37,2013-07-12 01:54:00,
2013-07-11 19:59:00,75.2,60.8,29.66,ENE,68,2.3,5.8,61,0.01,-RA,,0.02,WeatherDisplay:10.37,2013-07-12 01:59:00,
2013-07-11 20:05:00,74.8,61.4,29.66,South,180,0.0,1.1,63,0.01,SCT,,0.02,WeatherDisplay:10.37,2013-07-12 02:05:00,
2013-07-11 20:10:00,74.7,61.7,29.66,NW,315,0.0,0.0,64,0.00,SCT,,0.02,WeatherDisplay:10.37,2013-07-12 02:10:00,
2013-07-11 20:16:00,74.8,60.0,29.65,ESE,112,5.1,5.8,60,0.00,SCT,,0.02,WeatherDisplay:10.37,2013-07-12 02:16:00,
2013-07-11 20:21:00,75.2,60.8,29.65,ESE,112,3.2,3.7,61,0.00,SCT,,0.02,WeatherDisplay:10.37,2013-07-12 02:21:00,
2013-07-11 20:26:00,75.0,60.6,29.65,East,90,5.4,5.8,61,0.00,SCT,,0.02,WeatherDisplay:10.37,2013-07-12 02:26:00,
2013-07-11 20:31:00,74.7,60.8,29.65,SE,135,3.8,5.8,62,0.00,SCT,,0.02,WeatherDisplay:10.37,2013-07-12 02:31:00,
2013-07-11 20:36:00,74.1,61.1,29.65,NNE,22,1.0,2.3,64,0.00,SCT,,0.02,WeatherDisplay:10.37,2013-07-12 02:36:00,
2013-07-11 20:41:00,74.3,61.3,29.66,SSE,158,3.1,3.7,64,0.00,SCT,,0.02,WeatherDisplay:10.37,2013-07-12 02:41:00,
2013-07-11 20:46:00,74.3,61.3,29.66,South,180,5.2,6.3,64,0.00,SCT,,0.02,WeatherDisplay:10.37,2013-07-12 02:46:00,
2013-07-11 20:51:00,73.4,62.6,29.70,NNE,22,1.2,3.5,69,0.00,SCT,,0.02,WeatherDisplay:10.37,2013-07-12 02:51:00,
2013-07-11 20:56:00,73.2,62.4,29.70,NE,45,2.8,3.2,69,0.00,SCT,,0.02,WeatherDisplay:10.37,2013-07-12 02:56:00,
2013-07-11 21:01:00,73.6,62.8,29.70,NNW,338,2.6,3.7,69,0.00,-RA,,0.02,WeatherDisplay:10.37,2013-07-12 03:01:00,
2013-07-11 21:08:00,73.0,62.2,29.70,SW,225,0.3,2.3,69,0.00,-RA,,0.02,WeatherDisplay:10.37,2013-07-12 03:08:00,
2013-07-11 21:13:00,72.9,61.7,29.70,NE,45,2.7,3.2,68,0.00,-RA,,0.02,WeatherDisplay:10.37,2013-07-12 03:13:00,
2013-07-11 21:19:00,73.2,62.0,29.68,SSE,158,3.6,3.7,68,0.00,-RA,,0.02,WeatherDisplay:10.37,2013-07-12 03:19:00,
2013-07-11 21:24:00,73.4,61.8,29.68,ESE,112,3.7,4.6,67,0.00,SCT,,0.02,WeatherDisplay:10.37,2013-07-12 03:24:00,
2013-07-11 21:29:00,73.2,62.4,29.67,NE,45,3.2,4.6,69,0.00,SCT,,0.02,WeatherDisplay:10.37,2013-07-12 03:29:00,
2013-07-11 21:35:00,72.9,62.5,29.67,SE,135,2.3,3.5,70,0.00,SCT,,0.02,WeatherDisplay:10.37,2013-07-12 03:35:00,
2013-07-11 21:40:00,73.6,62.4,29.69,SSE,158,0.0,1.1,68,0.00,SCT,,0.02,WeatherDisplay:10.37,2013-07-12 03:40:00,
2013-07-11 21:46:00,72.9,62.5,29.69,East,90,0.0,1.1,70,0.00,CLR,,0.02,WeatherDisplay:10.37,2013-07-12 03:46:00,
2013-07-11 21:52:00,72.7,62.3,29.69,ESE,112,0.7,3.5,70,0.00,CLR,,0.02,WeatherDisplay:10.37,2013-07-12 03:52:00,
2013-07-11 21:57:00,72.5,62.6,29.69,East,90,1.1,2.3,71,0.00,CLR,,0.02,WeatherDisplay:10.37,2013-07-12 03:57:00,
2013-07-11 22:01:00,72.3,63.2,29.69,South,180,2.7,2.7,73,0.00,CLR,,0.02,WeatherDisplay:10.37,2013-07-12 04:01:00,
2013-07-11 22:06:00,72.5,62.2,29.71,ESE,112,1.9,2.3,70,0.00,FEW,,0.02,WeatherDisplay:10.37,2013-07-12 04:06:00,
2013-07-11 22:11:00,72.1,63.7,29.71,NNE,22,1.7,1.7,75,0.00,FEW,,0.02,WeatherDisplay:10.37,2013-07-12 04:11:00,
2013-07-11 22:16:00,71.6,64.0,29.72,East,90,1.1,1.1,77,0.01,RA,,0.03,WeatherDisplay:10.37,2013-07-12 04:16:00,
2013-07-11 22:21:00,71.1,63.9,29.72,West,270,2.0,2.3,78,0.02,RA,,0.04,WeatherDisplay:10.37,2013-07-12 04:21:00,
2013-07-11 22:26:00,70.3,63.8,29.69,NNW,338,2.7,3.5,80,0.02,RA,,0.04,WeatherDisplay:10.37,2013-07-12 04:26:00,
2013-07-11 22:31:00,70.2,63.4,29.69,NW,315,3.6,4.6,79,0.02,BKN,,0.04,WeatherDisplay:10.37,2013-07-12 04:31:00,
2013-07-11 22:36:00,70.2,63.4,29.69,South,180,4.3,4.6,79,0.03,RA,,0.05,WeatherDisplay:10.37,2013-07-12 04:36:00,
2013-07-11 22:41:00,68.9,64.2,29.72,SW,225,3.4,4.6,85,0.14,RA,,0.16,WeatherDisplay:10.37,2013-07-12 04:41:00,
2013-07-11 22:46:00,67.8,64.1,29.72,WSW,248,3.8,4.6,88,0.28,RA,,0.30,WeatherDisplay:10.37,2013-07-12 04:46:00,
2013-07-11 22:51:00,67.8,64.8,29.71,WSW,248,6.0,8.3,90,0.30,RA,,0.33,WeatherDisplay:10.37,2013-07-12 04:51:00,
2013-07-11 22:56:00,67.8,64.4,29.71,NNE,22,1.8,2.3,89,0.38,RA,,0.41,WeatherDisplay:10.37,2013-07-12 04:56:00,
2013-07-11 23:01:00,67.5,64.1,29.71,NE,45,4.1,5.3,89,0.42,RA,,0.44,WeatherDisplay:10.37,2013-07-12 05:01:00,
2013-07-11 23:06:00,67.6,63.9,29.70,NE,45,3.5,4.6,88,0.42,RA,,0.44,WeatherDisplay:10.37,2013-07-12 05:06:00,
2013-07-11 23:11:00,68.2,63.2,29.70,East,90,3.9,5.8,84,0.42,OVC,,0.44,WeatherDisplay:10.37,2013-07-12 05:11:00,
2013-07-11 23:16:00,68.5,63.1,29.66,SE,135,5.4,5.8,83,0.41,OVC,,0.44,WeatherDisplay:10.37,2013-07-12 05:16:00,
2013-07-11 23:21:00,68.4,64.0,29.66,SSE,158,1.3,2.3,86,0.40,BKN,,0.44,WeatherDisplay:10.37,2013-07-12 05:21:00,
2013-07-11 23:26:00,68.2,63.5,29.66,SE,135,4.2,5.8,85,0.40,BKN,,0.44,WeatherDisplay:10.37,2013-07-12 05:26:00,
2013-07-11 23:31:00,68.7,63.7,29.66,ESE,112,13.0,13.0,84,0.40,BKN,,0.44,WeatherDisplay:10.37,2013-07-12 05:31:00,
2013-07-11 23:36:00,70.3,62.4,29.66,ESE,112,7.8,9.4,76,0.39,BKN,,0.44,WeatherDisplay:10.37,2013-07-12 05:36:00,
2013-07-11 23:41:00,70.5,62.2,29.65,ESE,112,4.2,5.8,75,0.28,FEW,,0.44,WeatherDisplay:10.37,2013-07-12 05:41:00,
2013-07-11 23:46:00,70.3,62.4,29.65,SSE,158,4.6,6.9,76,0.14,FEW,,0.44,WeatherDisplay:10.37,2013-07-12 05:46:00,
2013-07-11 23:51:00,70.2,62.3,29.65,East,90,2.8,3.5,76,0.12,FEW,,0.44,WeatherDisplay:10.37,2013-07-12 05:51:00,
2013-07-11 23:56:00,69.6,62.4,29.65,ESE,112,2.2,2.3,78,0.04,FEW,,0.44,WeatherDisplay:10.37,2013-07-12 05:56:00,